createdAt,value
2022-08-01T00:00:22.825Z,56.27
2022-08-01T00:02:50.097Z,56.37
2022-08-01T00:05:17.246Z,56.56
2022-08-01T00:07:44.684Z,55.95
2022-08-01T00:10:14.378Z,56.54
2022-08-01T00:12:42.381Z,56.01
2022-08-01T00:15:11.445Z,55.50
2022-08-01T00:17:38.797Z,55.15
2022-08-01T00:20:07.965Z,55.29
2022-08-01T00:22:35.692Z,56.03
2022-08-01T00:25:03.211Z,55.79
2022-08-01T00:27:30.620Z,55.35
2022-08-01T00:30:11.523Z,55.30
2022-08-01T00:32:42.888Z,55.15
2022-08-01T00:35:10.705Z,55.12
2022-08-01T00:37:37.776Z,55.67
2022-08-01T00:40:05.383Z,55.21
2022-08-01T00:42:32.424Z,55.43
2022-08-01T00:44:59.654Z,55.20
2022-08-01T00:47:26.976Z,55.31
2022-08-01T00:49:54.184Z,54.90
2022-08-01T00:52:21.388Z,55.07
2022-08-01T00:54:49.291Z,55.36
2022-08-01T00:57:16.441Z,55.33
2022-08-01T01:00:05.329Z,56.10
2022-08-01T01:02:33.166Z,56.13
2022-08-01T01:05:00.225Z,56.36
2022-08-01T01:07:33.646Z,56.74
2022-08-01T01:10:07.728Z,56.91
2022-08-01T01:12:50.015Z,56.28
2022-08-01T01:15:23.993Z,57.33
2022-08-01T01:18:17.608Z,56.69
2022-08-01T01:20:53.186Z,55.92
2022-08-01T01:23:35.320Z,56.24
2022-08-01T01:26:25.728Z,56.48
2022-08-01T01:29:20.634Z,57.20
2022-08-01T01:31:56.879Z,56.73
2022-08-01T01:34:25.172Z,57.06
2022-08-01T01:36:55.740Z,56.46
2022-08-01T01:39:25.453Z,56.04
2022-08-01T01:41:56.202Z,56.51
2022-08-01T01:44:23.292Z,57.16
2022-08-01T01:46:52.460Z,57.50
2022-08-01T01:49:24.614Z,57.97
2022-08-01T01:52:02.078Z,58.60
2022-08-01T01:54:36.944Z,57.77
2022-08-01T01:57:07.988Z,58.13
2022-08-01T01:59:37.517Z,58.37
2022-08-01T02:02:07.571Z,57.76
2022-08-01T02:04:38.961Z,57.78
2022-08-01T02:07:09.958Z,58.48
2022-08-01T02:09:41.125Z,58.97
2022-08-01T02:12:11.552Z,58.85
2022-08-01T02:14:59.530Z,59.24
2022-08-01T02:17:27.947Z,58.50
2022-08-01T02:19:55.659Z,57.72
2022-08-01T02:22:33.555Z,54.60
2022-08-01T02:25:11.268Z,51.63
2022-08-01T02:27:45.087Z,51.35
2022-08-01T02:30:15.194Z,50.63
2022-08-01T02:32:48.530Z,49.82
2022-08-01T02:35:33.604Z,48.34
2022-08-01T02:38:04.618Z,47.86
2022-08-01T02:40:35.116Z,46.28
2022-08-01T02:43:04.760Z,44.11
2022-08-01T02:45:33.565Z,47.54
2022-08-01T02:48:10.985Z,50.70
2022-08-01T02:50:39.829Z,51.61
2022-08-01T02:53:11.251Z,52.32
2022-08-01T02:55:40.744Z,51.98
2022-08-01T02:58:11.238Z,49.90
2022-08-01T03:00:42.204Z,51.19
2022-08-01T03:03:12.236Z,51.00
2022-08-01T03:05:43.483Z,51.04
2022-08-01T03:08:11.954Z,52.48
2022-08-01T03:10:45.504Z,52.69
2022-08-01T03:13:13.739Z,54.34
2022-08-01T03:15:42.931Z,54.66
2022-08-01T03:18:12.660Z,54.85
2022-08-01T03:20:39.913Z,52.90
2022-08-01T03:23:09.842Z,54.26
2022-08-01T03:25:42.087Z,54.31
2022-08-01T03:28:13.112Z,51.16
2022-08-01T03:30:41.831Z,50.19
2022-08-01T03:33:09.876Z,51.91
2022-08-01T03:35:49.489Z,53.16
2022-08-01T03:38:21.393Z,53.79
2022-08-01T03:40:59.483Z,53.80
2022-08-01T03:43:42.666Z,53.80
2022-08-01T03:46:14.509Z,53.96
2022-08-01T03:48:48.189Z,52.75
2022-08-01T03:51:16.615Z,52.74
2022-08-01T03:53:46.481Z,53.24
2022-08-01T03:56:17.709Z,52.78
2022-08-01T03:58:45.219Z,53.11
2022-08-01T04:01:18.519Z,52.42
2022-08-01T04:03:46.501Z,53.80
2022-08-01T04:06:15.104Z,52.27
2022-08-01T04:08:42.708Z,52.17
2022-08-01T04:11:11.897Z,51.80
2022-08-01T04:13:39.130Z,52.08
2022-08-01T04:16:06.683Z,53.14
2022-08-01T04:18:33.852Z,51.47
2022-08-01T04:21:01.056Z,50.77
2022-08-01T04:23:32.554Z,50.01
2022-08-01T04:26:05.185Z,51.05
2022-08-01T04:28:37.203Z,51.38
2022-08-01T04:31:10.677Z,50.50
2022-08-01T04:33:41.777Z,50.48
2022-08-01T04:36:11.767Z,50.29
2022-08-01T04:38:41.263Z,51.51
2022-08-01T04:41:12.168Z,51.14
2022-08-01T04:43:39.799Z,51.36
2022-08-01T04:46:08.695Z,51.94
2022-08-01T04:48:38.411Z,49.83
2022-08-01T04:51:12.439Z,49.24
2022-08-01T04:53:39.462Z,48.62
2022-08-01T04:56:07.000Z,49.26
2022-08-01T04:58:34.310Z,51.00
2022-08-01T05:01:01.432Z,49.09
2022-08-01T05:03:28.561Z,48.07
2022-08-01T05:05:55.643Z,48.99
2022-08-01T05:08:22.693Z,47.75
2022-08-01T05:10:49.917Z,47.91
2022-08-01T05:13:17.021Z,48.03
2022-08-01T05:15:44.083Z,47.88
2022-08-01T05:18:11.350Z,47.53
2022-08-01T05:20:38.962Z,47.11
2022-08-01T05:23:06.647Z,47.70
2022-08-01T05:25:57.477Z,48.44
2022-08-01T05:28:25.683Z,47.52
2022-08-01T05:30:55.871Z,45.71
2022-08-01T05:33:23.217Z,46.74
2022-08-01T05:35:50.438Z,48.92
2022-08-01T05:38:17.540Z,47.03
2022-08-01T05:40:44.688Z,47.24
2022-08-01T05:43:11.738Z,47.72
2022-08-01T05:45:38.781Z,46.70
2022-08-01T05:48:06.135Z,45.94
2022-08-01T05:50:34.706Z,46.89
2022-08-01T05:53:01.936Z,45.79
2022-08-01T05:55:29.348Z,44.57
2022-08-01T05:57:56.725Z,45.20
2022-08-01T06:00:23.871Z,44.54
2022-08-01T06:02:50.957Z,44.97
2022-08-01T06:05:18.059Z,43.34
2022-08-01T06:07:45.168Z,43.62
2022-08-01T06:10:12.395Z,44.53
2022-08-01T06:12:39.555Z,44.40
2022-08-01T06:15:07.755Z,42.49
2022-08-01T06:17:35.035Z,44.20
2022-08-01T06:20:02.291Z,43.16
2022-08-01T06:22:30.678Z,43.85
2022-08-01T06:24:58.593Z,42.12
2022-08-01T06:27:28.362Z,43.16
2022-08-01T06:29:55.886Z,41.85
2022-08-01T06:32:26.343Z,43.39
2022-08-01T06:34:56.262Z,42.52
2022-08-01T06:37:24.600Z,43.12
2022-08-01T06:39:51.697Z,43.87
2022-08-01T06:42:18.975Z,41.71
2022-08-01T06:44:46.745Z,41.66
2022-08-01T06:47:14.060Z,42.99
2022-08-01T06:49:41.105Z,42.77
2022-08-01T06:52:08.796Z,41.28
2022-08-01T06:54:36.236Z,41.93
2022-08-01T06:57:06.565Z,41.90
2022-08-01T06:59:33.897Z,42.71
2022-08-01T07:02:02.304Z,41.96
2022-08-01T07:04:29.476Z,41.41
2022-08-01T07:06:57.453Z,42.17
2022-08-01T07:09:24.852Z,41.51
2022-08-01T07:11:53.468Z,41.23
2022-08-01T07:14:21.349Z,41.78
2022-08-01T07:16:49.034Z,41.36
2022-08-01T07:19:16.581Z,41.31
2022-08-01T07:21:45.298Z,39.93
2022-08-01T07:24:15.269Z,40.98
2022-08-01T07:26:52.936Z,40.17
2022-08-01T07:29:23.897Z,39.93
2022-08-01T07:31:52.621Z,40.72
2022-08-01T07:34:19.942Z,41.50
2022-08-01T07:36:47.357Z,40.67
2022-08-01T07:39:14.414Z,41.51
2022-08-01T07:41:53.004Z,39.56
2022-08-01T07:44:29.092Z,39.66
2022-08-01T07:46:56.771Z,40.90
2022-08-01T07:49:23.900Z,40.56
2022-08-01T07:52:04.148Z,38.93
2022-08-01T07:54:35.229Z,38.99
2022-08-01T07:57:03.984Z,39.58
2022-08-01T07:59:31.784Z,39.37
2022-08-01T08:01:59.246Z,38.79
2022-08-01T08:04:27.434Z,39.00
2022-08-01T08:06:54.954Z,39.98
2022-08-01T08:09:22.183Z,39.97
2022-08-01T08:11:49.774Z,40.78
2022-08-01T08:14:18.079Z,40.29
2022-08-01T08:16:45.803Z,41.64
2022-08-01T08:19:13.004Z,40.64
2022-08-01T08:21:40.752Z,40.44
2022-08-01T08:24:25.958Z,40.40
2022-08-01T08:26:59.990Z,40.58
2022-08-01T08:29:28.537Z,39.86
2022-08-01T08:32:01.199Z,40.14
2022-08-01T08:34:29.782Z,40.83
2022-08-01T08:36:58.853Z,39.36
2022-08-01T08:39:27.064Z,38.66
2022-08-01T08:41:54.456Z,38.41
2022-08-01T08:44:22.168Z,37.48
2022-08-01T08:46:52.353Z,38.16
2022-08-01T08:49:21.416Z,37.42
2022-08-01T08:51:51.121Z,37.83
2022-08-01T08:54:21.815Z,38.50
2022-08-01T08:56:51.578Z,37.39
2022-08-01T08:59:20.628Z,38.91
2022-08-01T09:01:48.504Z,37.18
2022-08-01T09:04:15.866Z,37.53
2022-08-01T09:06:43.230Z,38.70
2022-08-01T09:09:11.503Z,35.30
2022-08-01T09:11:39.014Z,37.40
2022-08-01T09:14:26.443Z,39.12
2022-08-01T09:17:04.106Z,37.05
2022-08-01T09:19:41.648Z,36.51
2022-08-01T09:22:12.252Z,35.58
2022-08-01T09:24:41.552Z,35.29
2022-08-01T09:27:26.703Z,36.00
2022-08-01T09:30:01.775Z,36.68
2022-08-01T09:32:36.260Z,36.93
2022-08-01T09:35:43.168Z,36.54
2022-08-01T09:38:19.107Z,35.18
2022-08-01T09:40:49.335Z,36.82
2022-08-01T09:43:17.427Z,35.45
2022-08-01T09:45:45.832Z,36.40
2022-08-01T09:48:19.314Z,35.66
2022-08-01T09:50:49.317Z,35.25
2022-08-01T09:53:30.382Z,37.17
2022-08-01T09:56:11.890Z,37.32
2022-08-01T09:58:59.314Z,35.57
2022-08-01T10:01:37.536Z,35.39
2022-08-01T10:04:11.114Z,36.15
2022-08-01T10:06:40.973Z,36.08
2022-08-01T10:09:08.796Z,35.80
2022-08-01T10:11:40.352Z,36.02
2022-08-01T10:14:08.745Z,37.42
2022-08-01T10:16:38.547Z,38.64
2022-08-01T10:19:14.613Z,37.51
2022-08-01T10:21:57.699Z,38.20
2022-08-01T10:24:30.881Z,37.95
2022-08-01T10:27:09.222Z,35.73
2022-08-01T10:30:19.829Z,36.18
2022-08-01T10:32:55.052Z,37.01
2022-08-01T10:35:45.596Z,36.66
2022-08-01T10:38:13.923Z,36.09
2022-08-01T10:40:43.219Z,36.88
2022-08-01T10:43:21.464Z,37.13
2022-08-01T10:45:51.102Z,36.90
2022-08-01T10:48:45.947Z,36.70
2022-08-01T10:51:18.363Z,36.35
2022-08-01T10:53:54.825Z,37.78
2022-08-01T10:56:27.035Z,35.71
2022-08-01T10:59:06.231Z,37.82
2022-08-01T11:01:43.436Z,37.80
2022-08-01T11:04:18.487Z,36.17
2022-08-01T11:06:54.923Z,36.53
2022-08-01T11:09:36.976Z,38.21
2022-08-01T11:12:13.628Z,36.64
2022-08-01T11:14:59.872Z,37.28
2022-08-01T11:17:37.580Z,37.72
2022-08-01T11:20:08.330Z,37.88
2022-08-01T11:23:07.079Z,35.96
2022-08-01T11:26:05.093Z,36.22
2022-08-01T11:28:34.886Z,36.69
2022-08-01T11:31:11.819Z,37.41
2022-08-01T11:33:46.037Z,36.71
2022-08-01T11:36:15.465Z,36.92
2022-08-01T11:38:48.885Z,36.20
2022-08-01T11:41:38.547Z,35.66
2022-08-01T11:44:16.039Z,36.24
2022-08-01T11:46:49.797Z,36.13
2022-08-01T11:49:35.947Z,36.33
2022-08-01T11:52:17.068Z,34.35
2022-08-01T11:54:47.002Z,35.33
2022-08-01T11:57:34.045Z,34.65
2022-08-01T12:00:15.002Z,35.47
2022-08-01T12:02:43.023Z,35.42
2022-08-01T12:05:14.312Z,36.06
2022-08-01T12:07:43.416Z,36.26
2022-08-01T12:10:17.276Z,35.49
2022-08-01T12:12:47.164Z,35.18
2022-08-01T12:15:14.666Z,34.88
2022-08-01T12:17:58.517Z,34.58
2022-08-01T12:20:32.006Z,34.65
2022-08-01T12:23:02.199Z,35.97
2022-08-01T12:25:30.163Z,36.95
2022-08-01T12:28:02.186Z,36.90
2022-08-01T12:30:31.951Z,37.69
2022-08-01T12:32:59.618Z,35.67
2022-08-01T12:35:28.336Z,35.10
2022-08-01T12:38:20.351Z,36.11
2022-08-01T12:40:51.482Z,36.23
2022-08-01T12:43:28.500Z,35.61
2022-08-01T12:46:00.065Z,35.44
2022-08-01T12:48:28.248Z,35.04
2022-08-01T12:50:59.289Z,34.16
2022-08-01T12:53:40.166Z,34.51
2022-08-01T12:56:11.567Z,33.65
2022-08-01T12:58:38.839Z,34.18
2022-08-01T13:01:10.940Z,35.10
2022-08-01T13:03:38.967Z,35.21
2022-08-01T13:06:16.165Z,34.49
2022-08-01T13:08:45.014Z,34.55
2022-08-01T13:11:19.131Z,35.28
2022-08-01T13:13:48.903Z,35.11
2022-08-01T13:16:30.963Z,36.23
2022-08-01T13:19:09.073Z,35.28
2022-08-01T13:21:53.954Z,34.87
2022-08-01T13:24:28.167Z,35.25
2022-08-01T13:27:04.990Z,35.33
2022-08-01T13:29:34.247Z,35.96
2022-08-01T13:32:27.817Z,35.33
2022-08-01T13:35:10.204Z,34.34
2022-08-01T13:37:39.267Z,35.40
2022-08-01T13:40:09.544Z,34.16
2022-08-01T13:42:37.927Z,34.97
2022-08-01T13:45:13.956Z,36.78
2022-08-01T13:48:12.020Z,36.69
2022-08-01T13:50:33.371Z,37.54
2022-08-01T13:53:00.563Z,36.87
2022-08-01T13:55:32.352Z,36.33
2022-08-01T13:58:01.640Z,37.80
2022-08-01T14:00:28.810Z,37.61
2022-08-01T14:02:55.884Z,38.86
2022-08-01T14:05:23.009Z,38.57
2022-08-01T14:07:50.107Z,38.46
2022-08-01T14:10:24.758Z,38.96
2022-08-01T14:12:51.972Z,38.17
2022-08-01T14:15:38.475Z,35.33
2022-08-01T14:18:09.315Z,36.07
2022-08-01T14:20:38.437Z,36.48
2022-08-01T14:23:08.520Z,35.82
2022-08-01T14:25:59.092Z,35.84
2022-08-01T14:28:29.578Z,35.37
2022-08-01T14:30:58.546Z,35.54
2022-08-01T14:33:26.445Z,35.55
2022-08-01T14:36:05.421Z,35.74
2022-08-01T14:38:34.877Z,35.62
2022-08-01T14:41:04.484Z,33.98
2022-08-01T14:43:33.941Z,34.54
2022-08-01T14:46:05.173Z,34.94
2022-08-01T14:48:32.782Z,34.52
2022-08-01T14:51:03.724Z,33.91
2022-08-01T14:53:31.546Z,34.24
2022-08-01T14:56:01.444Z,35.38
2022-08-01T14:58:28.551Z,35.04
2022-08-01T15:00:58.940Z,34.83
2022-08-01T15:03:27.056Z,35.45
2022-08-01T15:05:54.405Z,36.28
2022-08-01T15:08:21.513Z,35.57
2022-08-01T15:10:48.764Z,35.64
2022-08-01T15:13:15.879Z,36.30
2022-08-01T15:15:42.939Z,35.20
2022-08-01T15:18:10.087Z,35.07
2022-08-01T15:20:37.343Z,36.18
2022-08-01T15:23:05.129Z,37.11
2022-08-01T15:25:41.308Z,35.55
2022-08-01T15:28:12.970Z,36.28
2022-08-01T15:30:40.732Z,36.54
2022-08-01T15:33:41.015Z,37.53
2022-08-01T15:36:08.401Z,37.65
2022-08-01T15:38:39.553Z,37.31
2022-08-01T15:41:06.822Z,37.03
2022-08-01T15:43:33.922Z,39.54
2022-08-01T15:46:10.343Z,37.46
2022-08-01T15:48:40.080Z,37.38
2022-08-01T15:51:07.464Z,37.45
2022-08-01T15:53:34.615Z,37.47
2022-08-01T15:56:01.677Z,37.16
2022-08-01T15:58:28.725Z,38.59
2022-08-01T16:00:55.848Z,40.01
2022-08-01T16:03:23.015Z,37.79
2022-08-01T16:05:50.820Z,39.72
2022-08-01T16:08:18.026Z,37.92
2022-08-01T16:10:45.347Z,37.99
2022-08-01T16:13:13.030Z,38.48
2022-08-01T16:15:41.000Z,37.50
2022-08-01T16:18:10.249Z,36.68
2022-08-01T16:20:41.510Z,36.09
2022-08-01T16:23:11.823Z,34.66
2022-08-01T16:25:39.030Z,36.36
2022-08-01T16:28:06.419Z,37.48
2022-08-01T16:30:33.529Z,37.94
2022-08-01T16:33:07.307Z,39.28
2022-08-01T16:35:36.740Z,38.88
2022-08-01T16:38:07.529Z,39.84
2022-08-01T16:40:34.980Z,40.80
2022-08-01T16:43:15.402Z,39.66
2022-08-01T16:45:43.329Z,39.76
2022-08-01T16:48:12.332Z,40.61
2022-08-01T16:50:39.997Z,41.17
2022-08-01T16:53:07.373Z,40.44
2022-08-01T16:55:50.446Z,40.68
2022-08-01T16:58:22.252Z,40.77
2022-08-01T17:00:57.247Z,40.73
2022-08-01T17:03:46.779Z,41.66
2022-08-01T17:06:13.786Z,40.59
2022-08-01T17:08:46.399Z,41.09
2022-08-01T17:11:15.154Z,41.63
2022-08-01T17:13:43.362Z,42.61
2022-08-01T17:16:11.234Z,42.53
2022-08-01T17:18:38.730Z,42.97
2022-08-01T17:21:06.102Z,43.09
2022-08-01T17:23:33.757Z,43.87
2022-08-01T17:26:01.041Z,44.07
2022-08-01T17:28:28.289Z,43.43
2022-08-01T17:30:55.641Z,44.49
2022-08-01T17:33:22.765Z,44.51
2022-08-01T17:35:50.398Z,44.53
2022-08-01T17:38:18.368Z,44.25
2022-08-01T17:40:45.897Z,43.30
2022-08-01T17:43:14.116Z,43.71
2022-08-01T17:45:50.924Z,44.33
2022-08-01T17:48:25.820Z,43.40
2022-08-01T17:50:53.209Z,44.05
2022-08-01T17:53:21.620Z,43.86
2022-08-01T17:55:55.407Z,45.87
2022-08-01T17:58:49.871Z,46.05
2022-08-01T18:01:14.694Z,45.01
2022-08-01T18:03:42.134Z,44.78
2022-08-01T18:06:10.891Z,44.99
2022-08-01T18:08:40.522Z,44.20
2022-08-01T18:11:09.248Z,45.34
2022-08-01T18:13:40.561Z,45.93
2022-08-01T18:16:11.266Z,46.31
2022-08-01T18:18:40.566Z,46.21
2022-08-01T18:21:11.208Z,46.20
2022-08-01T18:23:38.403Z,46.29
2022-08-01T18:26:08.823Z,46.55
2022-08-01T18:28:46.760Z,46.41
2022-08-01T18:31:17.354Z,48.52
2022-08-01T18:33:44.958Z,47.00
2022-08-01T18:36:32.205Z,48.50
2022-08-01T18:39:04.332Z,47.42
2022-08-01T18:41:34.067Z,47.78
2022-08-01T18:44:05.644Z,48.23
2022-08-01T18:46:37.867Z,47.50
2022-08-01T18:49:07.316Z,47.75
2022-08-01T18:51:36.185Z,47.15
2022-08-01T18:54:04.934Z,47.41
2022-08-01T18:56:32.004Z,47.57
2022-08-01T18:58:59.102Z,48.10
2022-08-01T19:01:26.293Z,47.50
2022-08-01T19:03:53.517Z,48.66
2022-08-01T19:06:20.650Z,49.71
2022-08-01T19:08:47.840Z,48.19
2022-08-01T19:11:15.087Z,47.97
2022-08-01T19:13:42.184Z,48.10
2022-08-01T19:16:09.255Z,48.25
2022-08-01T19:18:36.459Z,47.66
2022-08-01T19:21:06.740Z,47.37
2022-08-01T19:23:53.170Z,47.74
2022-08-01T19:26:27.245Z,47.50
2022-08-01T19:29:02.109Z,47.33
2022-08-01T19:31:29.784Z,47.21
2022-08-01T19:33:57.886Z,46.86
2022-08-01T19:36:25.132Z,46.89
2022-08-01T19:38:52.212Z,47.44
2022-08-01T19:41:19.576Z,47.20
2022-08-01T19:43:48.060Z,46.69
2022-08-01T19:46:17.570Z,47.62
2022-08-01T19:48:50.066Z,47.73
2022-08-01T19:51:22.168Z,48.49
2022-08-01T19:53:55.420Z,46.87
2022-08-01T19:56:25.952Z,46.94
2022-08-01T19:59:00.108Z,46.66
2022-08-01T20:01:27.923Z,48.44
2022-08-01T20:03:57.050Z,47.95
2022-08-01T20:06:27.076Z,48.12
2022-08-01T20:08:55.044Z,47.12
2022-08-01T20:11:23.953Z,47.54
2022-08-01T20:13:52.104Z,48.35
2022-08-01T20:16:19.379Z,46.67
2022-08-01T20:18:47.175Z,46.68
2022-08-01T20:21:15.262Z,46.49
2022-08-01T20:23:45.040Z,46.35
2022-08-01T20:26:15.581Z,46.80
2022-08-01T20:28:46.475Z,47.52
2022-08-01T20:31:16.456Z,48.14
2022-08-01T20:33:48.171Z,46.77
2022-08-01T20:36:25.103Z,46.46
2022-08-01T20:38:57.508Z,47.32
2022-08-01T20:41:25.888Z,47.63
2022-08-01T20:43:58.930Z,47.79
2022-08-01T20:46:28.392Z,47.38
2022-08-01T20:48:57.802Z,47.56
2022-08-01T20:51:26.492Z,48.41
2022-08-01T20:53:54.888Z,49.79
2022-08-01T20:57:00.358Z,47.74
2022-08-01T20:59:55.987Z,48.37
2022-08-01T21:02:30.196Z,49.04
2022-08-01T21:05:03.099Z,49.30
2022-08-01T21:07:41.535Z,48.76
2022-08-01T21:10:15.965Z,49.19
2022-08-01T21:12:56.403Z,48.33
2022-08-01T21:15:31.003Z,48.51
2022-08-01T21:18:07.613Z,48.26
2022-08-01T21:20:37.823Z,48.36
2022-08-01T21:23:09.759Z,48.64
2022-08-01T21:25:37.254Z,48.93
2022-08-01T21:28:05.575Z,49.69
2022-08-01T21:30:34.979Z,48.67
2022-08-01T21:33:05.037Z,48.63
2022-08-01T21:35:33.049Z,48.77
2022-08-01T21:38:02.805Z,49.10
2022-08-01T21:40:32.443Z,50.19
2022-08-01T21:43:01.662Z,48.70
2022-08-01T21:45:30.445Z,48.76
2022-08-01T21:48:00.129Z,48.92
2022-08-01T21:50:29.338Z,49.83
2022-08-01T21:53:38.400Z,49.02
2022-08-01T21:56:43.238Z,49.59
2022-08-01T21:59:18.456Z,49.60
2022-08-01T22:02:03.255Z,51.73
2022-08-01T22:04:45.313Z,51.08
2022-08-01T22:07:14.993Z,51.05
2022-08-01T22:09:46.123Z,51.30
2022-08-01T22:12:17.921Z,51.15
2022-08-01T22:14:48.424Z,50.86
2022-08-01T22:17:22.632Z,51.51
2022-08-01T22:19:55.210Z,51.75
2022-08-01T22:22:50.474Z,51.04
2022-08-01T22:25:11.334Z,51.50
2022-08-01T22:28:08.237Z,50.92
2022-08-01T22:30:29.276Z,51.27
2022-08-01T22:33:07.406Z,51.47
2022-08-01T22:35:44.000Z,52.41
2022-08-01T22:38:11.079Z,52.79
2022-08-01T22:40:44.086Z,51.75
2022-08-01T22:43:46.493Z,52.21
2022-08-01T22:46:22.701Z,51.95
2022-08-01T22:49:01.246Z,52.72
2022-08-01T22:51:54.461Z,52.86
2022-08-01T22:54:30.106Z,52.63
2022-08-01T22:56:59.916Z,52.33
2022-08-01T22:59:43.231Z,53.71
2022-08-01T23:02:15.891Z,53.10
2022-08-01T23:04:45.137Z,53.94
2022-08-01T23:07:19.033Z,54.19
2022-08-01T23:09:53.670Z,53.49
2022-08-01T23:12:27.080Z,54.45
2022-08-01T23:14:56.393Z,54.72
2022-08-01T23:17:29.389Z,52.90
2022-08-01T23:20:06.227Z,55.18
2022-08-01T23:22:36.169Z,53.77
2022-08-01T23:25:12.178Z,53.88
2022-08-01T23:28:03.679Z,54.51
2022-08-01T23:30:32.742Z,54.88
2022-08-01T23:33:00.451Z,54.33
2022-08-01T23:35:28.928Z,54.22
2022-08-01T23:38:01.968Z,54.58
2022-08-01T23:40:32.598Z,53.77
2022-08-01T23:43:01.396Z,54.63
2022-08-01T23:45:28.840Z,54.06
2022-08-01T23:48:16.000Z,54.77
2022-08-01T23:50:43.315Z,55.86
2022-08-01T23:53:10.753Z,54.35
2022-08-01T23:55:40.271Z,55.19
2022-08-01T23:58:09.747Z,55.65
